Map

Track Data

SID SEASON NUMBER BASIN SUBBASIN NAME ISO_TIME NATURE LAT LON WMO_WIND WMO_PRES WMO_AGENCY TRACK_TYPE DIST2LAND LANDFALL IFLAG USA_AGENCY USA_ATCF_ID USA_LAT USA_LON USA_RECORD USA_STATUS USA_WIND USA_PRES USA_SSHS USA_R34_NE USA_R34_SE USA_R34_SW USA_R34_NW USA_R50_NE USA_R50_SE USA_R50_SW USA_R50_NW USA_R64_NE USA_R64_SE USA_R64_SW USA_R64_NW USA_POCI USA_ROCI USA_RMW USA_EYE TOKYO_LAT TOKYO_LON TOKYO_GRADE TOKYO_WIND TOKYO_PRES TOKYO_R50_DIR TOKYO_R50_LONG TOKYO_R50_SHORT TOKYO_R30_DIR TOKYO_R30_LONG TOKYO_R30_SHORT TOKYO_LAND CMA_LAT CMA_LON CMA_CAT CMA_WIND CMA_PRES HKO_LAT HKO_LON HKO_CAT HKO_WIND HKO_PRES NEWDELHI_LAT NEWDELHI_LON NEWDELHI_GRADE NEWDELHI_WIND NEWDELHI_PRES NEWDELHI_CI NEWDELHI_DP NEWDELHI_POCI REUNION_LAT REUNION_LON REUNION_TYPE REUNION_WIND REUNION_PRES REUNION_TNUM REUNION_CI REUNION_RMW REUNION_R34_NE REUNION_R34_SE REUNION_R34_SW REUNION_R34_NW REUNION_R50_NE REUNION_R50_SE REUNION_R50_SW REUNION_R50_NW REUNION_R64_NE REUNION_R64_SE REUNION_R64_SW REUNION_R64_NW BOM_LAT BOM_LON BOM_TYPE BOM_WIND BOM_PRES BOM_TNUM BOM_CI BOM_RMW BOM_R34_NE BOM_R34_SE BOM_R34_SW BOM_R34_NW BOM_R50_NE BOM_R50_SE BOM_R50_SW BOM_R50_NW BOM_R64_NE BOM_R64_SE BOM_R64_SW BOM_R64_NW BOM_ROCI BOM_POCI BOM_EYE BOM_POS_METHOD BOM_PRES_METHOD NADI_LAT NADI_LON NADI_CAT NADI_WIND NADI_PRES WELLINGTON_LAT WELLINGTON_LON WELLINGTON_WIND WELLINGTON_PRES DS824_LAT DS824_LON DS824_STAGE DS824_WIND DS824_PRES TD9636_LAT TD9636_LON TD9636_STAGE TD9636_WIND TD9636_PRES TD9635_LAT TD9635_LON TD9635_WIND TD9635_PRES TD9635_ROCI NEUMANN_LAT NEUMANN_LON NEUMANN_CLASS NEUMANN_WIND NEUMANN_PRES MLC_LAT MLC_LON MLC_CLASS MLC_WIND MLC_PRES USA_GUST BOM_GUST BOM_GUST_PER REUNION_GUST REUNION_GUST_PER USA_SEAHGT USA_SEARAD_NE USA_SEARAD_SE USA_SEARAD_SW USA_SEARAD_NW STORM_SPEED STORM_DIR
1880173N27274 1880 6 NA GM NOT_NAMED 1880-06-21 00:00:00 TS 26.7000 -86.5000 40 hurdat_atl main 351 335 O_____________ hurdat_atl AL011880 26.7000 -86.5000 TS 40 0 7 276
1880173N27274 1880 6 NA GM NOT_NAMED 1880-06-21 03:00:00 TS 26.7402 -86.9075 main 335 302 P_____________ AL011880 26.7402 -86.9075 TS 40 0 7 278
1880173N27274 1880 6 NA GM NOT_NAMED 1880-06-21 06:00:00 TS 26.8000 -87.3000 40 hurdat_atl main 302 276 O_____________ hurdat_atl AL011880 26.8000 -87.3000 TS 40 0 7 283
1880173N27274 1880 6 NA GM NOT_NAMED 1880-06-21 09:00:00 TS 26.8924 -87.6650 main 271 247 P_____________ AL011880 26.8924 -87.6650 TS 40 0 7 288
1880173N27274 1880 6 NA GM NOT_NAMED 1880-06-21 12:00:00 TS 27.0000 -88.0000 40 hurdat_atl main 247 226 O_____________ hurdat_atl AL011880 27.0000 -88.0000 TS 40 0 6 290
1880173N27274 1880 6 NA GM NOT_NAMED 1880-06-21 15:00:00 TS 27.0923 -88.2927 main 226 206 P_____________ AL011880 27.0923 -88.2927 TS 40 0 6 291
1880173N27274 1880 6 NA GM NOT_NAMED 1880-06-21 18:00:00 TS 27.2000 -88.6000 40 hurdat_atl main 206 190 O_____________ hurdat_atl AL011880 27.2000 -88.6000 TS 40 0 7 292
1880173N27274 1880 6 NA GM NOT_NAMED 1880-06-21 21:00:00 TS 27.3426 -88.9925 main 190 168 P_____________ AL011880 27.3426 -88.9925 TS 40 0 8 293
1880173N27274 1880 6 NA GM NOT_NAMED 1880-06-22 00:00:00 TS 27.5000 -89.4000 40 hurdat_atl main 170 161 O_____________ hurdat_atl AL011880 27.5000 -89.4000 TS 40 0 7 295
1880173N27274 1880 6 NA GM NOT_NAMED 1880-06-22 03:00:00 TS 27.6572 -89.7426 main 156 145 P_____________ AL011880 27.6572 -89.7426 TS 40 0 7 296
1880173N27274 1880 6 NA GM NOT_NAMED 1880-06-22 06:00:00 TS 27.8000 -90.1000 40 hurdat_atl main 145 134 O_____________ hurdat_atl AL011880 27.8000 -90.1000 TS 40 0 8 290
1880173N27274 1880 6 NA GM NOT_NAMED 1880-06-22 09:00:00 TS 27.9227 -90.5574 main 133 122 P_____________ AL011880 27.9227 -90.5574 TS 40 0 8 284
1880173N27274 1880 6 NA GM NOT_NAMED 1880-06-22 12:00:00 TS 28.0000 -91.0000 40 hurdat_atl main 123 123 O_____________ hurdat_atl AL011880 28.0000 -91.0000 TS 40 0 7 278
1880173N27274 1880 6 NA GM NOT_NAMED 1880-06-22 15:00:00 TS 28.0147 -91.3152 main 128 128 P_____________ AL011880 28.0147 -91.3152 TS 40 0 5 270
1880173N27274 1880 6 NA GM NOT_NAMED 1880-06-22 18:00:00 TS 28.0000 -91.6000 40 hurdat_atl main 140 140 O_____________ hurdat_atl AL011880 28.0000 -91.6000 TS 40 0 6 269
1880173N27274 1880 6 NA GM NOT_NAMED 1880-06-22 21:00:00 TS 28.0001 -91.9575 main 160 160 P_____________ AL011880 28.0001 -91.9575 TS 40 0 6 270
1880173N27274 1880 6 NA GM NOT_NAMED 1880-06-23 00:00:00 TS 28.0000 -92.3000 40 hurdat_atl main 167 167 O_____________ hurdat_atl AL011880 28.0000 -92.3000 TS 40 0 5 269
1880173N27274 1880 6 NA GM NOT_NAMED 1880-06-23 03:00:00 TS 27.9923 -92.5576 main 169 169 P_____________ AL011880 27.9923 -92.5576 TS 40 0 4 270
1880173N27274 1880 6 NA GM NOT_NAMED 1880-06-23 06:00:00 TS 28.0000 -92.8000 40 hurdat_atl main 174 174 O_____________ hurdat_atl AL011880 28.0000 -92.8000 TS 40 0 5 276
1880173N27274 1880 6 NA GM NOT_NAMED 1880-06-23 09:00:00 TS 28.0425 -93.0925 main 184 174 P_____________ AL011880 28.0425 -93.0925 TS 40 0 5 281
1880173N27274 1880 6 NA GM NOT_NAMED 1880-06-23 12:00:00 TS 28.1000 -93.4000 40 hurdat_atl main 182 177 O_____________ hurdat_atl AL011880 28.1000 -93.4000 TS 40 0 6 281
1880173N27274 1880 6 NA GM NOT_NAMED 1880-06-23 15:00:00 TS 28.1500 -93.7075 main 177 147 P_____________ AL011880 28.1500 -93.7075 TS 40 0 5 281
1880173N27274 1880 6 NA GM NOT_NAMED 1880-06-23 18:00:00 TS 28.2000 -94.0000 40 hurdat_atl main 147 132 O_____________ hurdat_atl AL011880 28.2000 -94.0000 TS 40 0 5 282
1880173N27274 1880 6 NA GM NOT_NAMED 1880-06-23 21:00:00 TS 28.2499 -94.2575 main 125 103 P_____________ AL011880 28.2499 -94.2575 TS 40 0 5 283
1880173N27274 1880 6 NA GM NOT_NAMED 1880-06-24 00:00:00 TS 28.3000 -94.5000 40 hurdat_atl main 103 92 O_____________ hurdat_atl AL011880 28.3000 -94.5000 TS 40 0 4 282
1880173N27274 1880 6 NA GM NOT_NAMED 1880-06-24 03:00:00 TS 28.3425 -94.7501 main 87 68 P_____________ AL011880 28.3425 -94.7501 TS 40 0 5 283
1880173N27274 1880 6 NA GM NOT_NAMED 1880-06-24 06:00:00 TS 28.4000 -95.0000 40 hurdat_atl main 68 48 O_____________ hurdat_atl AL011880 28.4000 -95.0000 TS 40 0 5 289
1880173N27274 1880 6 NA GM NOT_NAMED 1880-06-24 09:00:00 TS 28.4932 -95.2602 main 45 29 P_____________ AL011880 28.4932 -95.2602 TS 40 0 5 294
1880173N27274 1880 6 NA GM NOT_NAMED 1880-06-24 12:00:00 TS 28.6000 -95.5000 40 hurdat_atl main 29 11 O_____________ hurdat_atl AL011880 28.6000 -95.5000 TS 40 0 4 298
1880173N27274 1880 6 NA GM NOT_NAMED 1880-06-24 15:00:00 TS 28.7000 -95.7000 40 hurdat_atl main 11 0 O_____________ hurdat_atl AL011880 28.7000 -95.7000 L TS 40 0 4 300
1880173N27274 1880 6 NA NA NOT_NAMED 1880-06-24 18:00:00 TS 28.8000 -95.9000 40 hurdat_atl main 0 0 O_____________ hurdat_atl AL011880 28.8000 -95.9000 TS 40 0 4 303
1880173N27274 1880 6 NA NA NOT_NAMED 1880-06-24 21:00:00 TS 28.9330 -96.1068 main 0 0 P_____________ AL011880 28.9330 -96.1068 TS 35 0 5 311
1880173N27274 1880 6 NA NA NOT_NAMED 1880-06-25 00:00:00 TS 29.1000 -96.3000 30 hurdat_atl main 0 0 O_____________ hurdat_atl AL011880 29.1000 -96.3000 TD 30 -1 5 319
1880173N27274 1880 6 NA NA NOT_NAMED 1880-06-25 03:00:00 TS 29.2932 -96.4602 main 0 0 P_____________ AL011880 29.2932 -96.4602 TD 30 -1 5 327
1880173N27274 1880 6 NA NA NOT_NAMED 1880-06-25 06:00:00 TS 29.5000 -96.6000 30 hurdat_atl main 0 O_____________ hurdat_atl AL011880 29.5000 -96.6000 TD 30 -1 5 331

About IBTrACS Database

This database is a web-friendly format of International Best Track Archive for Climate Stewardship (IBTrACS), a global best track data archive curated by NOAA dating back to 1842.

Updated: 2021-10-19